sensor_id;sensor_type;location;lat;lon;timestamp;pressure;altitude;pressure_sealevel;temperature;humidity
12666;BME280;58531;59.050;17.416;2022-12-08T00:00:09;99675.13;;;-10.37;100.00
12666;BME280;58531;59.050;17.416;2022-12-08T00:02:36;99669.09;;;-10.41;100.00
12666;BME280;58531;59.050;17.416;2022-12-08T00:05:03;99673.81;;;-10.43;100.00
12666;BME280;58531;59.050;17.416;2022-12-08T00:07:47;99667.59;;;-10.54;100.00
12666;BME280;58531;59.050;17.416;2022-12-08T00:10:33;99676.31;;;-10.46;100.00
12666;BME280;58531;59.050;17.416;2022-12-08T00:12:59;99677.72;;;-10.49;100.00
12666;BME280;58531;59.050;17.416;2022-12-08T00:15:26;99680.16;;;-10.52;100.00
12666;BME280;58531;59.050;17.416;2022-12-08T00:17:53;99677.72;;;-10.49;100.00
12666;BME280;58531;59.050;17.416;2022-12-08T00:20:19;99672.31;;;-10.44;100.00
12666;BME280;58531;59.050;17.416;2022-12-08T00:22:46;99683.25;;;-10.27;100.00
12666;BME280;58531;59.050;17.416;2022-12-08T00:25:13;99682.94;;;-10.13;100.00
12666;BME280;58531;59.050;17.416;2022-12-08T00:27:42;99682.72;;;-10.08;100.00
12666;BME280;58531;59.050;17.416;2022-12-08T00:30:09;99679.72;;;-10.10;100.00
12666;BME280;58531;59.050;17.416;2022-12-08T00:32:36;99685.59;;;-10.10;100.00
12666;BME280;58531;59.050;17.416;2022-12-08T00:35:03;99686.81;;;-10.07;100.00
12666;BME280;58531;59.050;17.416;2022-12-08T00:37:30;99687.13;;;-10.09;100.00
12666;BME280;58531;59.050;17.416;2022-12-08T00:39:57;99690.69;;;-10.13;100.00
12666;BME280;58531;59.050;17.416;2022-12-08T00:42:24;99689.91;;;-10.14;100.00
12666;BME280;58531;59.050;17.416;2022-12-08T00:44:52;99692.19;;;-10.12;100.00
12666;BME280;58531;59.050;17.416;2022-12-08T00:47:19;99697.97;;;-10.15;100.00
12666;BME280;58531;59.050;17.416;2022-12-08T00:49:45;99689.03;;;-10.18;100.00
12666;BME280;58531;59.050;17.416;2022-12-08T00:52:12;99687.88;;;-10.08;100.00
12666;BME280;58531;59.050;17.416;2022-12-08T00:54:39;99700.78;;;-10.08;100.00
12666;BME280;58531;59.050;17.416;2022-12-08T00:57:06;99699.06;;;-10.04;100.00
12666;BME280;58531;59.050;17.416;2022-12-08T00:59:33;99696.94;;;-10.02;100.00
12666;BME280;58531;59.050;17.416;2022-12-08T01:02:01;99689.38;;;-10.07;100.00
12666;BME280;58531;59.050;17.416;2022-12-08T01:04:27;99683.38;;;-10.11;100.00
12666;BME280;58531;59.050;17.416;2022-12-08T01:06:54;99692.19;;;-10.12;100.00
12666;BME280;58531;59.050;17.416;2022-12-08T01:09:21;99684.97;;;-10.07;100.00
12666;BME280;58531;59.050;17.416;2022-12-08T01:11:48;99690.47;;;-10.08;100.00
12666;BME280;58531;59.050;17.416;2022-12-08T01:14:15;99680.00;;;-10.12;100.00
12666;BME280;58531;59.050;17.416;2022-12-08T01:16:42;99686.44;;;-10.18;100.00
12666;BME280;58531;59.050;17.416;2022-12-08T01:19:11;99678.63;;;-10.21;100.00
12666;BME280;58531;59.050;17.416;2022-12-08T01:21:39;99676.25;;;-10.26;100.00
12666;BME280;58531;59.050;17.416;2022-12-08T01:24:09;99671.72;;;-10.29;100.00
12666;BME280;58531;59.050;17.416;2022-12-08T01:26:36;99668.81;;;-10.28;100.00
12666;BME280;58531;59.050;17.416;2022-12-08T01:29:03;99671.84;;;-10.26;100.00
12666;BME280;58531;59.050;17.416;2022-12-08T01:31:30;99666.13;;;-10.31;100.00
12666;BME280;58531;59.050;17.416;2022-12-08T01:33:56;99668.19;;;-10.25;100.00
12666;BME280;58531;59.050;17.416;2022-12-08T01:36:29;99663.03;;;-10.25;100.00
12666;BME280;58531;59.050;17.416;2022-12-08T01:38:58;99657.88;;;-10.25;100.00
12666;BME280;58531;59.050;17.416;2022-12-08T01:41:28;99669.06;;;-10.21;100.00
12666;BME280;58531;59.050;17.416;2022-12-08T01:43:58;99661.72;;;-10.31;100.00
12666;BME280;58531;59.050;17.416;2022-12-08T01:46:26;99658.91;;;-10.37;100.00
12666;BME280;58531;59.050;17.416;2022-12-08T01:48:58;99662.56;;;-10.38;100.00
12666;BME280;58531;59.050;17.416;2022-12-08T01:51:27;99653.31;;;-10.39;100.00
12666;BME280;58531;59.050;17.416;2022-12-08T01:53:56;99659.56;;;-10.40;100.00
12666;BME280;58531;59.050;17.416;2022-12-08T01:56:28;99656.97;;;-10.40;100.00
12666;BME280;58531;59.050;17.416;2022-12-08T01:58:57;99663.53;;;-10.31;100.00
12666;BME280;58531;59.050;17.416;2022-12-08T02:01:24;99658.59;;;-10.36;100.00
12666;BME280;58531;59.050;17.416;2022-12-08T02:03:54;99653.31;;;-10.39;100.00
12666;BME280;58531;59.050;17.416;2022-12-08T02:06:23;99647.81;;;-10.38;100.00
12666;BME280;58531;59.050;17.416;2022-12-08T02:08:53;99653.84;;;-10.34;100.00
12666;BME280;58531;59.050;17.416;2022-12-08T02:11:20;99659.03;;;-10.34;100.00
12666;BME280;58531;59.050;17.416;2022-12-08T02:13:49;99648.59;;;-10.37;100.00
12666;BME280;58531;59.050;17.416;2022-12-08T02:16:28;99653.97;;;-10.42;100.00
12666;BME280;58531;59.050;17.416;2022-12-08T02:21:57;99662.72;;;-10.55;100.00
12666;BME280;58531;59.050;17.416;2022-12-08T02:24:31;99657.34;;;-10.62;100.00
12666;BME280;58531;59.050;17.416;2022-12-08T02:27:23;99647.22;;;-10.67;100.00
12666;BME280;58531;59.050;17.416;2022-12-08T02:30:17;99651.94;;;-10.69;100.00
12666;BME280;58531;59.050;17.416;2022-12-08T02:35:55;99650.34;;;-10.74;100.00
12666;BME280;58531;59.050;17.416;2022-12-08T02:38:30;99650.34;;;-10.74;100.00
12666;BME280;58531;59.050;17.416;2022-12-08T02:41:09;99653.88;;;-10.78;100.00
12666;BME280;58531;59.050;17.416;2022-12-08T02:43:41;99653.75;;;-10.82;100.00
12666;BME280;58531;59.050;17.416;2022-12-08T02:46:12;99643.44;;;-10.82;100.00
12666;BME280;58531;59.050;17.416;2022-12-08T02:48:41;99650.28;;;-10.86;100.00
12666;BME280;58531;59.050;17.416;2022-12-08T02:51:11;99651.97;;;-10.90;100.00
12666;BME280;58531;59.050;17.416;2022-12-08T02:53:37;99652.75;;;-10.89;100.00
12666;BME280;58531;59.050;17.416;2022-12-08T02:56:13;99648.97;;;-10.92;100.00
12666;BME280;58531;59.050;17.416;2022-12-08T02:58:51;99649.28;;;-10.93;100.00
12666;BME280;58531;59.050;17.416;2022-12-08T03:01:36;99645.31;;;-10.91;100.00
12666;BME280;58531;59.050;17.416;2022-12-08T03:04:13;99642.31;;;-10.93;100.00
12666;BME280;58531;59.050;17.416;2022-12-08T03:06:50;99644.88;;;-10.93;100.00
12666;BME280;58531;59.050;17.416;2022-12-08T03:09:24;99650.66;;;-10.96;100.00
12666;BME280;58531;59.050;17.416;2022-12-08T03:11:58;99645.72;;;-11.01;100.00
12666;BME280;58531;59.050;17.416;2022-12-08T03:14:28;99648.16;;;-11.04;100.00
12666;BME280;58531;59.050;17.416;2022-12-08T03:16:57;99646.91;;;-10.98;100.00
12666;BME280;58531;59.050;17.416;2022-12-08T03:19:26;99648.84;;;-10.95;100.00
12666;BME280;58531;59.050;17.416;2022-12-08T03:21:57;99650.25;;;-10.98;100.00
12666;BME280;58531;59.050;17.416;2022-12-08T03:24:28;99651.88;;;-10.93;100.00
12666;BME280;58531;59.050;17.416;2022-12-08T03:26:58;99653.38;;;-10.92;100.00
12666;BME280;58531;59.050;17.416;2022-12-08T03:29:27;99657.13;;;-10.90;100.00
12666;BME280;58531;59.050;17.416;2022-12-08T03:31:57;99648.22;;;-10.92;100.00
12666;BME280;58531;59.050;17.416;2022-12-08T03:34:27;99646.38;;;-10.92;100.00
12666;BME280;58531;59.050;17.416;2022-12-08T03:36:59;99649.59;;;-10.95;100.00
12666;BME280;58531;59.050;17.416;2022-12-08T03:39:26;99647.47;;;-10.93;100.00
12666;BME280;58531;59.050;17.416;2022-12-08T03:41:53;99640.16;;;-10.91;100.00
12666;BME280;58531;59.050;17.416;2022-12-08T03:44:19;99643.06;;;-10.92;100.00
12666;BME280;58531;59.050;17.416;2022-12-08T03:46:46;99639.94;;;-10.98;100.00
12666;BME280;58531;59.050;17.416;2022-12-08T03:49:13;99629.84;;;-11.03;100.00
12666;BME280;58531;59.050;17.416;2022-12-08T03:51:40;99630.03;;;-11.08;100.00
12666;BME280;58531;59.050;17.416;2022-12-08T03:54:08;99630.47;;;-11.06;100.00
12666;BME280;58531;59.050;17.416;2022-12-08T03:56:36;99621.84;;;-11.10;100.00
12666;BME280;58531;59.050;17.416;2022-12-08T03:59:05;99631.91;;;-11.17;100.00
12666;BME280;58531;59.050;17.416;2022-12-08T04:01:32;99632.44;;;-11.23;100.00
12666;BME280;58531;59.050;17.416;2022-12-08T04:03:59;99621.88;;;-11.30;100.00
12666;BME280;58531;59.050;17.416;2022-12-08T04:06:26;99620.91;;;-11.26;100.00
12666;BME280;58531;59.050;17.416;2022-12-08T04:08:52;99620.47;;;-11.28;100.00
12666;BME280;58531;59.050;17.416;2022-12-08T04:11:21;99618.09;;;-11.33;100.00
12666;BME280;58531;59.050;17.416;2022-12-08T04:13:47;99615.25;;;-11.40;100.00
12666;BME280;58531;59.050;17.416;2022-12-08T04:16:16;99625.53;;;-11.31;100.00
12666;BME280;58531;59.050;17.416;2022-12-08T04:18:43;99627.06;;;-11.39;100.00
12666;BME280;58531;59.050;17.416;2022-12-08T04:21:10;99627.69;;;-11.42;100.00
12666;BME280;58531;59.050;17.416;2022-12-08T04:23:37;99631.66;;;-11.44;100.00
12666;BME280;58531;59.050;17.416;2022-12-08T04:26:04;99629.81;;;-11.55;100.00
12666;BME280;58531;59.050;17.416;2022-12-08T04:28:33;99629.03;;;-11.56;100.00
12666;BME280;58531;59.050;17.416;2022-12-08T04:31:00;99633.00;;;-11.58;100.00
12666;BME280;58531;59.050;17.416;2022-12-08T04:33:26;99626.53;;;-11.64;100.00
12666;BME280;58531;59.050;17.416;2022-12-08T04:35:53;99632.94;;;-11.70;100.00
12666;BME280;58531;59.050;17.416;2022-12-08T04:38:20;99635.50;;;-11.70;100.00
12666;BME280;58531;59.050;17.416;2022-12-08T04:40:47;99634.44;;;-11.69;100.00
12666;BME280;58531;59.050;17.416;2022-12-08T04:43:13;99641.72;;;-11.71;100.00
12666;BME280;58531;59.050;17.416;2022-12-08T04:45:42;99637.91;;;-11.65;100.00
12666;BME280;58531;59.050;17.416;2022-12-08T04:48:09;99635.31;;;-11.65;100.00
12666;BME280;58531;59.050;17.416;2022-12-08T04:50:38;99633.38;;;-11.68;100.00
12666;BME280;58531;59.050;17.416;2022-12-08T04:53:05;99635.06;;;-11.72;100.00
12666;BME280;58531;59.050;17.416;2022-12-08T04:55:32;99636.31;;;-11.78;100.00
12666;BME280;58531;59.050;17.416;2022-12-08T04:57:58;99633.28;;;-11.80;100.00
12666;BME280;58531;59.050;17.416;2022-12-08T05:00:25;99629.22;;;-11.81;100.00
12666;BME280;58531;59.050;17.416;2022-12-08T05:02:54;99626.00;;;-11.78;100.00
12666;BME280;58531;59.050;17.416;2022-12-08T05:05:20;99623.75;;;-11.80;100.00
12666;BME280;58531;59.050;17.416;2022-12-08T05:07:47;99622.09;;;-11.84;100.00
12666;BME280;58531;59.050;17.416;2022-12-08T05:10:14;99621.03;;;-11.83;100.00
12666;BME280;58531;59.050;17.416;2022-12-08T05:12:41;99619.81;;;-11.77;100.00
12666;BME280;58531;59.050;17.416;2022-12-08T05:15:08;99624.50;;;-11.79;100.00
12666;BME280;58531;59.050;17.416;2022-12-08T05:17:35;99629.03;;;-11.76;100.00
12666;BME280;58531;59.050;17.416;2022-12-08T05:20:03;99623.63;;;-11.83;100.00
12666;BME280;58531;59.050;17.416;2022-12-08T05:22:30;99623.31;;;-11.82;100.00
12666;BME280;58531;59.050;17.416;2022-12-08T05:24:57;99634.09;;;-11.88;100.00
12666;BME280;58531;59.050;17.416;2022-12-08T05:27:24;99631.25;;;-11.95;100.00
12666;BME280;58531;59.050;17.416;2022-12-08T05:29:50;99631.25;;;-11.95;100.00
12666;BME280;58531;59.050;17.416;2022-12-08T05:32:17;99635.16;;;-11.89;100.00
12666;BME280;58531;59.050;17.416;2022-12-08T05:34:44;99636.66;;;-11.88;100.00
12666;BME280;58531;59.050;17.416;2022-12-08T05:37:12;99635.78;;;-11.92;100.00
12666;BME280;58531;59.050;17.416;2022-12-08T05:39:39;99639.41;;;-11.93;100.00
12666;BME280;58531;59.050;17.416;2022-12-08T05:42:06;99637.91;;;-11.94;100.00
12666;BME280;58531;59.050;17.416;2022-12-08T05:44:32;99641.53;;;-11.95;100.00
12666;BME280;58531;59.050;17.416;2022-12-08T05:47:02;99635.78;;;-11.92;100.00
12666;BME280;58531;59.050;17.416;2022-12-08T05:49:29;99631.97;;;-11.86;100.00
12666;BME280;58531;59.050;17.416;2022-12-08T05:51:55;99637.63;;;-11.72;100.00
12666;BME280;58531;59.050;17.416;2022-12-08T05:54:23;99646.25;;;-11.68;100.00
12666;BME280;58531;59.050;17.416;2022-12-08T05:56:50;99652.03;;;-11.71;100.00
12666;BME280;58531;59.050;17.416;2022-12-08T05:59:17;99642.03;;;-11.73;100.00
12666;BME280;58531;59.050;17.416;2022-12-08T06:01:44;99651.75;;;-11.78;100.00
12666;BME280;58531;59.050;17.416;2022-12-08T06:04:11;99649.97;;;-11.86;100.00
12666;BME280;58531;59.050;17.416;2022-12-08T06:06:38;99635.16;;;-11.89;100.00
12666;BME280;58531;59.050;17.416;2022-12-08T06:09:04;99643.03;;;-11.94;100.00
12666;BME280;58531;59.050;17.416;2022-12-08T06:11:33;99646.69;;;-11.95;100.00
12666;BME280;58531;59.050;17.416;2022-12-08T06:14:00;99648.69;;;-12.01;100.00
12666;BME280;58531;59.050;17.416;2022-12-08T06:16:28;99642.19;;;-12.07;100.00
12666;BME280;58531;59.050;17.416;2022-12-08T06:18:55;99645.56;;;-12.15;100.00
12666;BME280;58531;59.050;17.416;2022-12-08T06:21:23;99644.38;;;-12.17;100.00
12666;BME280;58531;59.050;17.416;2022-12-08T06:23:52;99641.34;;;-12.19;100.00
12666;BME280;58531;59.050;17.416;2022-12-08T06:26:20;99643.59;;;-12.18;100.00
12666;BME280;58531;59.050;17.416;2022-12-08T06:28:50;99648.00;;;-12.18;100.00
12666;BME280;58531;59.050;17.416;2022-12-08T06:31:18;99645.72;;;-12.20;100.00
12666;BME280;58531;59.050;17.416;2022-12-08T06:33:46;99654.84;;;-12.22;100.00
12666;BME280;58531;59.050;17.416;2022-12-08T06:36:14;99651.66;;;-12.19;100.00
12666;BME280;58531;59.050;17.416;2022-12-08T06:38:41;99650.75;;;-12.23;100.00
12666;BME280;58531;59.050;17.416;2022-12-08T06:41:08;99654.56;;;-12.29;99.90
12666;BME280;58531;59.050;17.416;2022-12-08T06:43:35;99657.72;;;-12.32;100.00
12666;BME280;58531;59.050;17.416;2022-12-08T06:46:08;99659.41;;;-12.36;99.68
12666;BME280;58531;59.050;17.416;2022-12-08T06:48:35;99659.56;;;-12.41;99.45
12666;BME280;58531;59.050;17.416;2022-12-08T06:51:06;99663.81;;;-12.45;99.05
12666;BME280;58531;59.050;17.416;2022-12-08T06:53:33;99657.94;;;-12.46;99.45
12666;BME280;58531;59.050;17.416;2022-12-08T06:56:00;99653.69;;;-12.42;99.83
12666;BME280;58531;59.050;17.416;2022-12-08T06:58:27;99657.00;;;-12.41;99.81
12666;BME280;58531;59.050;17.416;2022-12-08T07:00:54;99657.72;;;-12.32;100.00
12666;BME280;58531;59.050;17.416;2022-12-08T07:03:22;99659.25;;;-12.31;100.00
12666;BME280;58531;59.050;17.416;2022-12-08T07:05:49;99662.75;;;-12.36;99.81
12666;BME280;58531;59.050;17.416;2022-12-08T07:08:16;99663.03;;;-12.37;100.00
12666;BME280;58531;59.050;17.416;2022-12-08T07:10:42;99663.94;;;-12.33;100.00
12666;BME280;58531;59.050;17.416;2022-12-08T07:13:09;99667.44;;;-12.38;100.00
12666;BME280;58531;59.050;17.416;2022-12-08T07:15:36;99661.09;;;-12.40;100.00
12666;BME280;58531;59.050;17.416;2022-12-08T07:18:02;99665.19;;;-12.48;99.25
12666;BME280;58531;59.050;17.416;2022-12-08T07:20:31;99674.28;;;-12.50;99.64
12666;BME280;58531;59.050;17.416;2022-12-08T07:22:57;99665.81;;;-12.51;99.47
12666;BME280;58531;59.050;17.416;2022-12-08T07:25:24;99668.84;;;-12.57;98.78
12666;BME280;58531;59.050;17.416;2022-12-08T07:27:51;99670.66;;;-12.58;99.24
12666;BME280;58531;59.050;17.416;2022-12-08T07:30:18;99677.47;;;-12.53;100.00
12666;BME280;58531;59.050;17.416;2022-12-08T07:32:45;99673.53;;;-12.59;99.13
12666;BME280;58531;59.050;17.416;2022-12-08T07:35:12;99684.56;;;-12.59;98.81
12666;BME280;58531;59.050;17.416;2022-12-08T07:37:40;99685.78;;;-12.56;99.79
12666;BME280;58531;59.050;17.416;2022-12-08T07:40:09;99684.13;;;-12.52;99.92
12666;BME280;58531;59.050;17.416;2022-12-08T07:42:36;99677.47;;;-12.53;99.77
12666;BME280;58531;59.050;17.416;2022-12-08T07:45:03;99676.22;;;-12.47;100.00
12666;BME280;58531;59.050;17.416;2022-12-08T07:47:29;99673.66;;;-12.39;100.00
12666;BME280;58531;59.050;17.416;2022-12-08T07:49:56;99674.38;;;-12.38;100.00
12666;BME280;58531;59.050;17.416;2022-12-08T07:52:23;99677.69;;;-12.29;100.00
12666;BME280;58531;59.050;17.416;2022-12-08T07:54:51;99685.25;;;-12.24;100.00
12666;BME280;58531;59.050;17.416;2022-12-08T07:57:18;99687.66;;;-12.19;100.00
12666;BME280;58531;59.050;17.416;2022-12-08T07:59:44;99691.56;;;-12.13;100.00
12666;BME280;58531;59.050;17.416;2022-12-08T08:02:16;99696.84;;;-12.01;100.00
12666;BME280;58531;59.050;17.416;2022-12-08T08:04:42;99692.09;;;-11.91;100.00
12666;BME280;58531;59.050;17.416;2022-12-08T08:07:09;99694.50;;;-11.86;100.00
12666;BME280;58531;59.050;17.416;2022-12-08T08:09:36;99689.78;;;-11.84;100.00
12666;BME280;58531;59.050;17.416;2022-12-08T08:12:05;99690.19;;;-11.73;100.00
12666;BME280;58531;59.050;17.416;2022-12-08T08:14:32;99689.13;;;-11.72;100.00
12666;BME280;58531;59.050;17.416;2022-12-08T08:16:59;99688.44;;;-11.61;100.00
12666;BME280;58531;59.050;17.416;2022-12-08T08:19:25;99692.72;;;-11.45;100.00
12666;BME280;58531;59.050;17.416;2022-12-08T08:21:52;99695.53;;;-11.38;100.00
12666;BME280;58531;59.050;17.416;2022-12-08T08:24:19;99697.31;;;-11.30;100.00
12666;BME280;58531;59.050;17.416;2022-12-08T08:26:48;99698.75;;;-11.20;100.00
12666;BME280;58531;59.050;17.416;2022-12-08T08:29:16;99699.91;;;-11.09;100.00
12666;BME280;58531;59.050;17.416;2022-12-08T08:31:43;99696.41;;;-11.05;100.00
12666;BME280;58531;59.050;17.416;2022-12-08T08:34:10;99696.00;;;-10.95;100.00
12666;BME280;58531;59.050;17.416;2022-12-08T08:36:37;99702.47;;;-10.89;100.00
12666;BME280;58531;59.050;17.416;2022-12-08T08:39:04;99693.63;;;-10.79;100.00
12666;BME280;58531;59.050;17.416;2022-12-08T08:41:31;99702.78;;;-10.70;100.00
12666;BME280;58531;59.050;17.416;2022-12-08T08:43:58;99695.63;;;-10.52;100.00
12666;BME280;58531;59.050;17.416;2022-12-08T08:46:26;99695.34;;;-10.39;100.00
12666;BME280;58531;59.050;17.416;2022-12-08T08:48:52;99699.91;;;-10.24;100.00
12666;BME280;58531;59.050;17.416;2022-12-08T08:51:19;99702.38;;;-10.16;100.00
12666;BME280;58531;59.050;17.416;2022-12-08T08:53:46;99701.88;;;-10.09;100.00
12666;BME280;58531;59.050;17.416;2022-12-08T08:56:16;99694.00;;;-10.01;100.00
12666;BME280;58531;59.050;17.416;2022-12-08T08:58:45;99700.13;;;-9.93;100.00
12666;BME280;58531;59.050;17.416;2022-12-08T09:01:14;99700.47;;;-9.83;100.00
12666;BME280;58531;59.050;17.416;2022-12-08T09:03:43;99705.63;;;-9.71;100.00
12666;BME280;58531;59.050;17.416;2022-12-08T09:06:10;99707.66;;;-9.64;100.00
12666;BME280;58531;59.050;17.416;2022-12-08T09:08:36;99700.44;;;-9.59;100.00
12666;BME280;58531;59.050;17.416;2022-12-08T09:11:03;99707.03;;;-9.49;100.00
12666;BME280;58531;59.050;17.416;2022-12-08T09:13:30;99707.53;;;-9.44;100.00
12666;BME280;58531;59.050;17.416;2022-12-08T09:15:58;99706.34;;;-9.34;100.00
12666;BME280;58531;59.050;17.416;2022-12-08T09:18:25;99702.03;;;-9.30;100.00
12666;BME280;58531;59.050;17.416;2022-12-08T09:20:53;99705.03;;;-9.28;100.00
12666;BME280;58531;59.050;17.416;2022-12-08T09:23:20;99708.47;;;-9.24;100.00
12666;BME280;58531;59.050;17.416;2022-12-08T09:25:47;99708.81;;;-9.26;100.00
12666;BME280;58531;59.050;17.416;2022-12-08T09:28:14;99705.91;;;-9.24;100.00
12666;BME280;58531;59.050;17.416;2022-12-08T09:30:41;99709.34;;;-9.21;100.00
12666;BME280;58531;59.050;17.416;2022-12-08T09:33:07;99712.56;;;-9.23;100.00
12666;BME280;58531;59.050;17.416;2022-12-08T09:35:34;99709.13;;;-9.27;100.00
12666;BME280;58531;59.050;17.416;2022-12-08T09:38:03;99710.97;;;-9.28;100.00
12666;BME280;58531;59.050;17.416;2022-12-08T09:40:31;99716.47;;;-9.29;100.00
12666;BME280;58531;59.050;17.416;2022-12-08T09:43:09;99710.22;;;-9.28;100.00
12666;BME280;58531;59.050;17.416;2022-12-08T09:45:44;99716.97;;;-9.12;100.00
12666;BME280;58531;59.050;17.416;2022-12-08T09:48:12;99706.50;;;-9.04;100.00
12666;BME280;58531;59.050;17.416;2022-12-08T09:50:45;99701.22;;;-9.07;100.00
12666;BME280;58531;59.050;17.416;2022-12-08T09:53:20;99713.06;;;-9.06;100.00
12666;BME280;58531;59.050;17.416;2022-12-08T09:55:52;99713.00;;;-9.10;100.00
12666;BME280;58531;59.050;17.416;2022-12-08T09:58:24;99716.66;;;-9.11;100.00
12666;BME280;58531;59.050;17.416;2022-12-08T10:00:53;99710.63;;;-9.15;100.00
12666;BME280;58531;59.050;17.416;2022-12-08T10:03:21;99720.19;;;-9.03;100.00
12666;BME280;58531;59.050;17.416;2022-12-08T10:05:56;99717.78;;;-8.96;100.00
12666;BME280;58531;59.050;17.416;2022-12-08T10:08:30;99718.56;;;-8.96;100.00
12666;BME280;58531;59.050;17.416;2022-12-08T10:11:09;99722.22;;;-8.97;100.00
12666;BME280;58531;59.050;17.416;2022-12-08T10:13:41;99725.31;;;-8.91;100.00
12666;BME280;58531;59.050;17.416;2022-12-08T10:16:19;99732.00;;;-8.90;100.00
12666;BME280;58531;59.050;17.416;2022-12-08T10:18:51;99731.34;;;-8.87;100.00
12666;BME280;58531;59.050;17.416;2022-12-08T10:21:23;99730.28;;;-8.86;100.00
12666;BME280;58531;59.050;17.416;2022-12-08T10:23:57;99729.50;;;-8.87;100.00
12666;BME280;58531;59.050;17.416;2022-12-08T10:26:27;99738.13;;;-8.83;100.00
12666;BME280;58531;59.050;17.416;2022-12-08T10:28:57;99738.97;;;-8.79;100.00
12666;BME280;58531;59.050;17.416;2022-12-08T10:31:25;99733.25;;;-8.72;100.00
12666;BME280;58531;59.050;17.416;2022-12-08T10:33:56;99733.34;;;-8.69;100.00
12666;BME280;58531;59.050;17.416;2022-12-08T10:36:43;99731.25;;;-8.63;100.00
12666;BME280;58531;59.050;17.416;2022-12-08T10:39:28;99737.94;;;-8.62;100.00
12666;BME280;58531;59.050;17.416;2022-12-08T10:42:00;99735.03;;;-8.61;100.00
12666;BME280;58531;59.050;17.416;2022-12-08T10:44:27;99729.09;;;-8.61;100.00
12666;BME280;58531;59.050;17.416;2022-12-08T10:46:54;99730.72;;;-8.57;100.00
12666;BME280;58531;59.050;17.416;2022-12-08T10:49:25;99735.22;;;-8.54;100.00
12666;BME280;58531;59.050;17.416;2022-12-08T10:51:52;99728.13;;;-8.57;100.00
12666;BME280;58531;59.050;17.416;2022-12-08T10:54:36;99731.38;;;-8.60;100.00
12666;BME280;58531;59.050;17.416;2022-12-08T10:57:03;99732.09;;;-8.59;100.00
12666;BME280;58531;59.050;17.416;2022-12-08T10:59:32;99730.94;;;-8.62;100.00
12666;BME280;58531;59.050;17.416;2022-12-08T11:01:59;99732.88;;;-8.59;100.00
12666;BME280;58531;59.050;17.416;2022-12-08T11:04:33;99737.47;;;-8.52;100.00
12666;BME280;58531;59.050;17.416;2022-12-08T11:07:02;99732.22;;;-8.56;100.00
12666;BME280;58531;59.050;17.416;2022-12-08T11:09:38;99735.22;;;-8.54;100.00
12666;BME280;58531;59.050;17.416;2022-12-08T11:12:21;99732.97;;;-8.55;100.00
12666;BME280;58531;59.050;17.416;2022-12-08T11:14:55;99742.22;;;-8.54;100.00
12666;BME280;58531;59.050;17.416;2022-12-08T11:17:35;99729.22;;;-8.58;100.00
12666;BME280;58531;59.050;17.416;2022-12-08T11:20:19;99739.63;;;-8.54;100.00
12666;BME280;58531;59.050;17.416;2022-12-08T11:22:50;99742.75;;;-8.49;100.00
12666;BME280;58531;59.050;17.416;2022-12-08T11:26:29;99728.81;;;-8.44;100.00
12666;BME280;58531;59.050;17.416;2022-12-08T11:29:00;99726.56;;;-8.46;100.00
12666;BME280;58531;59.050;17.416;2022-12-08T11:31:32;99732.59;;;-8.42;100.00
12666;BME280;58531;59.050;17.416;2022-12-08T11:34:00;99736.00;;;-8.38;100.00
12666;BME280;58531;59.050;17.416;2022-12-08T11:36:30;99736.34;;;-8.39;100.00
12666;BME280;58531;59.050;17.416;2022-12-08T11:39:02;99738.94;;;-8.39;100.00
12666;BME280;58531;59.050;17.416;2022-12-08T11:41:36;99734.84;;;-8.40;100.00
12666;BME280;58531;59.050;17.416;2022-12-08T11:44:12;99737.66;;;-8.45;100.00
12666;BME280;58531;59.050;17.416;2022-12-08T11:46:54;99736.00;;;-8.38;100.00
12666;BME280;58531;59.050;17.416;2022-12-08T11:49:24;99731.84;;;-8.27;100.00
12666;BME280;58531;59.050;17.416;2022-12-08T11:52:01;99728.72;;;-8.20;100.00
12666;BME280;58531;59.050;17.416;2022-12-08T11:54:43;99726.03;;;-8.24;100.00
12666;BME280;58531;59.050;17.416;2022-12-08T11:57:13;99726.25;;;-8.29;100.00
12666;BME280;58531;59.050;17.416;2022-12-08T11:59:48;99727.56;;;-8.35;100.00
12666;BME280;58531;59.050;17.416;2022-12-08T12:02:19;99735.34;;;-8.35;100.00
12666;BME280;58531;59.050;17.416;2022-12-08T12:04:55;99736.44;;;-8.36;100.00
12666;BME280;58531;59.050;17.416;2022-12-08T12:07:45;99737.84;;;-8.38;100.00
12666;BME280;58531;59.050;17.416;2022-12-08T12:10:45;99733.34;;;-8.41;100.00
12666;BME280;58531;59.050;17.416;2022-12-08T12:13:50;99736.34;;;-8.39;100.00
12666;BME280;58531;59.050;17.416;2022-12-08T12:16:52;99727.06;;;-8.40;100.00
12666;BME280;58531;59.050;17.416;2022-12-08T12:19:23;99734.50;;;-8.39;100.00
12666;BME280;58531;59.050;17.416;2022-12-08T12:21:55;99729.25;;;-8.42;100.00
12666;BME280;58531;59.050;17.416;2022-12-08T12:24:29;99726.56;;;-8.46;100.00
12666;BME280;58531;59.050;17.416;2022-12-08T12:26:59;99736.94;;;-8.46;100.00
12666;BME280;58531;59.050;17.416;2022-12-08T12:29:29;99738.66;;;-8.50;100.00
12666;BME280;58531;59.050;17.416;2022-12-08T12:31:59;99748.16;;;-8.54;100.00
12666;BME280;58531;59.050;17.416;2022-12-08T12:34:35;99738.38;;;-8.60;100.00
12666;BME280;58531;59.050;17.416;2022-12-08T12:37:05;99739.38;;;-8.65;100.00
12666;BME280;58531;59.050;17.416;2022-12-08T12:39:45;99735.28;;;-8.66;100.00
12666;BME280;58531;59.050;17.416;2022-12-08T12:42:34;99740.09;;;-8.64;100.00
12666;BME280;58531;59.050;17.416;2022-12-08T12:45:28;99741.53;;;-8.67;100.00
12666;BME280;58531;59.050;17.416;2022-12-08T12:48:20;99745.19;;;-8.68;100.00
12666;BME280;58531;59.050;17.416;2022-12-08T12:50:49;99749.63;;;-8.68;100.00
12666;BME280;58531;59.050;17.416;2022-12-08T12:53:46;99739.38;;;-8.65;100.00